createdAt,value
2018-04-20T00:02:11.042Z,17.83
2018-04-20T00:04:39.504Z,17.79
2018-04-20T00:07:08.084Z,17.80
2018-04-20T00:09:36.522Z,17.79
2018-04-20T00:12:04.999Z,17.80
2018-04-20T00:14:34.239Z,17.85
2018-04-20T00:17:02.636Z,17.84
2018-04-20T00:19:31.072Z,17.83
2018-04-20T00:22:00.145Z,17.79
2018-04-20T00:24:28.519Z,17.78
2018-04-20T00:26:56.971Z,17.75
2018-04-20T00:29:25.356Z,17.73
2018-04-20T00:31:53.750Z,17.65
2018-04-20T00:34:22.127Z,17.65
2018-04-20T00:36:51.737Z,17.62
2018-04-20T00:39:20.102Z,17.60
2018-04-20T00:41:48.506Z,17.56
2018-04-20T00:44:17.005Z,17.54
2018-04-20T00:46:46.291Z,17.44
2018-04-20T00:49:14.690Z,17.42
2018-04-20T00:51:43.151Z,17.43
2018-04-20T00:54:23.320Z,17.36
2018-04-20T00:56:56.157Z,17.31
2018-04-20T00:59:24.538Z,17.34
2018-04-20T01:01:52.969Z,17.30
2018-04-20T01:04:21.341Z,17.33
2018-04-20T01:06:49.737Z,17.28
2018-04-20T01:09:18.346Z,17.26
2018-04-20T01:11:47.176Z,17.24
2018-04-20T01:14:15.602Z,17.23
2018-04-20T01:16:44.017Z,17.22
2018-04-20T01:19:13.188Z,17.21
2018-04-20T01:21:41.673Z,17.18
2018-04-20T01:24:10.208Z,17.15
2018-04-20T01:26:38.948Z,17.15
2018-04-20T01:29:07.397Z,17.13
2018-04-20T01:31:35.891Z,17.10
2018-04-20T01:34:04.732Z,17.12
2018-04-20T01:36:33.157Z,17.09
2018-04-20T01:39:01.526Z,17.10
2018-04-20T01:41:29.936Z,17.09
2018-04-20T01:43:58.363Z,17.06
2018-04-20T01:46:26.762Z,17.05
2018-04-20T01:48:55.464Z,16.98
2018-04-20T01:51:24.836Z,16.97
2018-04-20T01:53:53.235Z,16.93
2018-04-20T01:56:21.642Z,16.92
2018-04-20T01:58:50.061Z,16.91
2018-04-20T02:01:18.748Z,16.89
2018-04-20T02:03:48.137Z,16.88
2018-04-20T02:06:16.833Z,16.86
2018-04-20T02:08:45.379Z,16.83
2018-04-20T02:11:13.871Z,16.82
2018-04-20T02:13:42.303Z,16.80
2018-04-20T02:16:10.931Z,16.76
2018-04-20T02:18:40.012Z,16.76
2018-04-20T02:21:08.457Z,16.74
2018-04-20T02:23:36.992Z,16.70
2018-04-20T02:26:06.200Z,16.70
2018-04-20T02:28:34.598Z,16.66
2018-04-20T02:31:03.021Z,16.59
2018-04-20T02:33:32.598Z,16.55
2018-04-20T02:36:00.962Z,16.54
2018-04-20T02:38:29.518Z,16.52
2018-04-20T02:40:58.759Z,16.51
2018-04-20T02:43:27.136Z,16.48
2018-04-20T02:45:55.516Z,16.47
2018-04-20T02:48:24.649Z,16.44
2018-04-20T02:50:53.277Z,16.42
2018-04-20T02:53:21.674Z,16.37
2018-04-20T02:55:50.361Z,16.38
2018-04-20T02:58:19.680Z,16.35
2018-04-20T03:00:48.125Z,16.33
2018-04-20T03:03:16.864Z,16.32
2018-04-20T03:05:45.413Z,16.28
2018-04-20T03:08:13.941Z,16.31
2018-04-20T03:10:42.407Z,16.27
2018-04-20T03:13:10.944Z,16.25
2018-04-20T03:15:39.414Z,16.19
2018-04-20T03:18:08.155Z,16.20
2018-04-20T03:20:36.701Z,16.19
2018-04-20T03:23:05.196Z,16.16
2018-04-20T03:25:33.812Z,16.18
2018-04-20T03:28:02.283Z,16.18
2018-04-20T03:30:30.695Z,16.20
2018-04-20T03:32:59.587Z,16.18
2018-04-20T03:35:27.946Z,16.21
2018-04-20T03:37:57.295Z,16.21
2018-04-20T03:40:26.828Z,16.18
2018-04-20T03:42:55.235Z,16.16
2018-04-20T03:45:23.611Z,16.10
2018-04-20T03:47:52.342Z,16.13
2018-04-20T03:50:20.723Z,16.14
2018-04-20T03:52:50.037Z,16.14
2018-04-20T03:55:19.289Z,16.14
2018-04-20T03:57:47.728Z,16.16
2018-04-20T04:00:16.209Z,16.15
2018-04-20T04:02:44.830Z,16.12
2018-04-20T04:05:13.212Z,16.17
2018-04-20T04:07:41.698Z,16.15
2018-04-20T04:10:10.668Z,16.15
2018-04-20T04:12:39.309Z,16.14
2018-04-20T04:15:07.757Z,16.13
2018-04-20T04:17:48.061Z,16.12
2018-04-20T04:20:28.245Z,16.11
2018-04-20T04:23:08.463Z,16.14
2018-04-20T04:25:48.737Z,16.14
2018-04-20T04:28:27.450Z,16.16
2018-04-20T04:30:55.837Z,16.16
2018-04-20T04:33:24.240Z,16.11
2018-04-20T04:35:53.518Z,16.11
2018-04-20T04:38:21.884Z,16.14
2018-04-20T04:40:50.261Z,16.13
2018-04-20T04:43:18.773Z,16.14
2018-04-20T04:45:48.400Z,16.12
2018-04-20T04:48:16.818Z,16.11
2018-04-20T04:50:45.348Z,16.12
2018-04-20T04:53:13.842Z,16.13
2018-04-20T04:55:42.265Z,16.15
2018-04-20T04:58:10.800Z,16.20
2018-04-20T05:00:39.271Z,16.21
2018-04-20T05:03:07.710Z,16.22
2018-04-20T05:05:36.191Z,16.24
2018-04-20T05:08:04.884Z,16.24
2018-04-20T05:10:33.277Z,16.27
2018-04-20T05:13:01.762Z,16.30
2018-04-20T05:15:30.287Z,16.33
2018-04-20T05:17:58.645Z,16.38
2018-04-20T05:20:27.536Z,16.38
2018-04-20T05:22:56.057Z,16.42
2018-04-20T05:25:24.621Z,16.49
2018-04-20T05:27:53.221Z,16.54
2018-04-20T05:30:22.478Z,16.64
2018-04-20T05:32:50.867Z,16.71
2018-04-20T05:35:19.983Z,16.79
2018-04-20T05:37:48.436Z,16.85
2018-04-20T05:40:16.963Z,16.89
2018-04-20T05:42:45.705Z,16.97
2018-04-20T05:45:14.125Z,17.02
2018-04-20T05:47:42.853Z,17.11
2018-04-20T05:50:11.417Z,17.20
2018-04-20T05:52:40.176Z,17.26
2018-04-20T05:55:09.483Z,17.35
2018-04-20T05:57:38.711Z,17.42
2018-04-20T06:00:07.636Z,17.53
2018-04-20T06:02:36.101Z,17.44
2018-04-20T06:05:05.363Z,17.45
2018-04-20T06:07:33.847Z,17.51
2018-04-20T06:10:02.313Z,17.53
2018-04-20T06:12:30.704Z,17.59
2018-04-20T06:14:59.150Z,17.69
2018-04-20T06:17:27.522Z,17.76
2018-04-20T06:19:56.110Z,17.83
2018-04-20T06:22:27.864Z,17.89
2018-04-20T06:24:56.287Z,17.93
2018-04-20T06:27:24.784Z,18.04
2018-04-20T06:29:53.170Z,18.13
2018-04-20T06:32:21.592Z,18.18
2018-04-20T06:34:49.988Z,18.24
2018-04-20T06:37:18.403Z,18.33
2018-04-20T06:39:46.800Z,18.40
2018-04-20T06:42:15.238Z,18.45
2018-04-20T06:44:43.628Z,18.54
2018-04-20T06:47:12.302Z,18.64
2018-04-20T06:49:41.736Z,18.76
2018-04-20T06:52:10.154Z,18.87
2018-04-20T06:54:38.579Z,18.92
2018-04-20T06:57:07.219Z,19.02
2018-04-20T06:59:35.865Z,19.13
2018-04-20T07:02:04.236Z,19.20
2018-04-20T07:04:32.963Z,19.27
2018-04-20T07:07:01.316Z,19.36
2018-04-20T07:09:29.703Z,19.40
2018-04-20T07:11:58.130Z,19.45
2018-04-20T07:14:26.477Z,19.58
2018-04-20T07:16:54.859Z,19.70
2018-04-20T07:19:23.906Z,19.84
2018-04-20T07:21:52.509Z,20.02
2018-04-20T07:24:21.977Z,20.16
2018-04-20T07:26:51.291Z,20.30
2018-04-20T07:29:20.488Z,20.45
2018-04-20T07:31:49.021Z,20.55
2018-04-20T07:34:18.477Z,20.51
2018-04-20T07:36:47.049Z,20.58
2018-04-20T07:39:15.586Z,20.66
2018-04-20T07:41:44.120Z,20.67
2018-04-20T07:44:12.750Z,20.70
2018-04-20T07:46:41.242Z,20.81
2018-04-20T07:49:09.808Z,20.86
2018-04-20T07:51:38.297Z,20.96
2018-04-20T07:54:06.882Z,20.97
2018-04-20T07:56:37.245Z,21.08
2018-04-20T07:59:05.839Z,21.10
2018-04-20T08:01:34.483Z,21.15
2018-04-20T08:04:04.603Z,21.22
2018-04-20T08:06:33.280Z,21.38
2018-04-20T08:09:01.660Z,21.58
2018-04-20T08:11:30.085Z,21.72
2018-04-20T08:13:59.091Z,21.83
2018-04-20T08:16:27.508Z,21.91
2018-04-20T08:18:56.852Z,22.01
2018-04-20T08:21:25.888Z,22.21
2018-04-20T08:23:54.748Z,22.43
2018-04-20T08:26:23.195Z,22.55
2018-04-20T08:28:51.670Z,22.70
2018-04-20T08:31:20.074Z,22.78
2018-04-20T08:33:48.525Z,22.78
2018-04-20T08:36:16.944Z,22.93
2018-04-20T08:38:45.578Z,22.95
2018-04-20T08:41:15.111Z,22.79
2018-04-20T08:43:44.596Z,22.79
2018-04-20T08:46:13.286Z,22.72
2018-04-20T08:48:41.819Z,22.72
2018-04-20T08:51:10.371Z,22.79
2018-04-20T08:53:39.197Z,22.96
2018-04-20T08:56:07.732Z,23.10
2018-04-20T08:58:36.357Z,23.24
2018-04-20T09:01:04.810Z,23.33
2018-04-20T09:03:33.607Z,23.39
2018-04-20T09:06:02.017Z,23.61
2018-04-20T09:08:30.371Z,23.80
2018-04-20T09:10:59.739Z,24.01
2018-04-20T09:13:28.114Z,24.13
2018-04-20T09:15:56.500Z,24.20
2018-04-20T09:18:25.325Z,24.51
2018-04-20T09:20:53.832Z,25.10
2018-04-20T09:23:22.234Z,25.85
2018-04-20T09:25:50.626Z,26.48
2018-04-20T09:28:19.007Z,27.23
2018-04-20T09:30:47.407Z,27.73
2018-04-20T09:33:15.816Z,27.91
2018-04-20T09:35:44.183Z,28.14
2018-04-20T09:38:12.650Z,28.54
2018-04-20T09:40:41.674Z,28.85
2018-04-20T09:43:10.114Z,29.11
2018-04-20T09:45:39.068Z,29.53
2018-04-20T09:48:07.646Z,29.94
2018-04-20T09:50:36.125Z,30.25
2018-04-20T09:53:05.022Z,30.71
2018-04-20T09:55:33.716Z,30.66
2018-04-20T09:58:02.206Z,31.24
2018-04-20T10:00:37.169Z,31.59
2018-04-20T10:03:07.662Z,31.94
2018-04-20T10:05:36.379Z,32.18
2018-04-20T10:08:05.170Z,32.45
2018-04-20T10:10:33.528Z,33.31
2018-04-20T10:13:06.673Z,33.17
2018-04-20T10:15:36.537Z,32.64
2018-04-20T10:18:05.121Z,32.19
2018-04-20T10:20:33.497Z,32.43
2018-04-20T10:23:02.615Z,32.59
2018-04-20T10:25:31.199Z,33.08
2018-04-20T10:27:59.620Z,33.06
2018-04-20T10:30:28.676Z,33.21
2018-04-20T10:32:57.046Z,33.22
2018-04-20T10:35:25.423Z,33.12
2018-04-20T10:37:54.094Z,33.25
2018-04-20T10:40:23.043Z,33.40
2018-04-20T10:42:51.474Z,33.26
2018-04-20T10:45:20.774Z,34.30
2018-04-20T10:47:49.208Z,34.37
2018-04-20T10:50:17.644Z,34.72
2018-04-20T10:52:46.015Z,35.23
2018-04-20T10:55:14.406Z,35.14
2018-04-20T10:57:43.275Z,33.91
2018-04-20T11:00:11.794Z,34.52
2018-04-20T11:02:40.224Z,35.04
2018-04-20T11:05:08.595Z,34.78
2018-04-20T11:07:37.032Z,34.74
2018-04-20T11:10:05.508Z,34.45
2018-04-20T11:12:33.888Z,34.39
2018-04-20T11:15:02.714Z,34.47
2018-04-20T11:17:31.454Z,34.64
2018-04-20T11:20:00.549Z,34.24
2018-04-20T11:22:29.384Z,34.39
2018-04-20T11:24:57.928Z,34.29
2018-04-20T11:27:26.580Z,34.02
2018-04-20T11:29:55.539Z,34.16
2018-04-20T11:32:24.434Z,34.18
2018-04-20T11:34:52.919Z,34.30
2018-04-20T11:37:21.363Z,34.17
2018-04-20T11:39:49.980Z,33.73
2018-04-20T11:42:18.414Z,33.99
2018-04-20T11:44:46.928Z,34.21
2018-04-20T11:47:15.847Z,33.90
2018-04-20T11:49:44.980Z,33.57
2018-04-20T11:52:13.439Z,33.31
2018-04-20T11:54:41.808Z,32.91
2018-04-20T11:57:10.158Z,32.56
2018-04-20T11:59:38.702Z,32.57
2018-04-20T12:02:07.180Z,32.74
2018-04-20T12:04:35.558Z,33.07
2018-04-20T12:07:04.354Z,33.18
2018-04-20T12:09:33.111Z,33.04
2018-04-20T12:12:01.533Z,33.10
2018-04-20T12:14:30.106Z,33.23
2018-04-20T12:16:58.490Z,33.45
2018-04-20T12:19:26.893Z,33.62
2018-04-20T12:21:56.053Z,33.07
2018-04-20T12:24:24.835Z,33.09
2018-04-20T12:26:53.287Z,32.76
2018-04-20T12:29:22.347Z,32.78
2018-04-20T12:31:51.043Z,32.55
2018-04-20T12:34:19.617Z,32.74
2018-04-20T12:36:48.104Z,32.84
2018-04-20T12:39:16.482Z,33.08
2018-04-20T12:41:44.851Z,33.17
2018-04-20T12:44:14.199Z,33.54
2018-04-20T12:46:42.538Z,33.44
2018-04-20T12:49:10.912Z,33.14
2018-04-20T12:51:40.077Z,33.25
2018-04-20T12:54:08.474Z,33.09
2018-04-20T12:56:36.887Z,32.70
2018-04-20T12:59:05.415Z,32.58
2018-04-20T13:01:33.768Z,32.41
2018-04-20T13:04:02.216Z,32.70
2018-04-20T13:06:30.700Z,32.90
2018-04-20T13:08:59.185Z,32.76
2018-04-20T13:11:27.916Z,32.32
2018-04-20T13:13:56.404Z,31.82
2018-04-20T13:16:25.034Z,31.71
2018-04-20T13:18:53.424Z,31.29
2018-04-20T13:21:22.706Z,31.41
2018-04-20T13:23:51.080Z,31.10
2018-04-20T13:26:19.506Z,31.26
2018-04-20T13:28:49.862Z,31.76
2018-04-20T13:31:18.382Z,32.11
2018-04-20T13:33:46.735Z,31.80
2018-04-20T13:36:15.657Z,31.37
2018-04-20T13:38:44.029Z,31.12
2018-04-20T13:41:12.667Z,30.99
2018-04-20T13:43:41.052Z,31.29
2018-04-20T13:46:09.526Z,31.44
2018-04-20T13:48:38.632Z,31.42
2018-04-20T13:51:07.554Z,31.04
2018-04-20T13:53:35.942Z,30.49
2018-04-20T13:56:04.923Z,30.54
2018-04-20T13:58:33.565Z,30.15
2018-04-20T14:01:02.196Z,30.45
2018-04-20T14:03:30.704Z,30.46
2018-04-20T14:05:59.160Z,30.54
2018-04-20T14:08:27.592Z,30.33
2018-04-20T14:10:56.565Z,30.20
2018-04-20T14:13:25.376Z,30.17
2018-04-20T14:15:54.724Z,29.67
2018-04-20T14:18:23.305Z,29.40
2018-04-20T14:20:51.798Z,29.07
2018-04-20T14:23:20.331Z,28.95
2018-04-20T14:25:48.677Z,28.77
2018-04-20T14:28:17.875Z,28.86
2018-04-20T14:30:46.397Z,28.72
2018-04-20T14:33:14.787Z,28.77
2018-04-20T14:35:43.418Z,29.42
2018-04-20T14:38:11.767Z,29.82
2018-04-20T14:40:40.141Z,29.86
2018-04-20T14:43:09.461Z,29.81
2018-04-20T14:45:37.897Z,29.85
2018-04-20T14:48:06.272Z,29.97
2018-04-20T14:50:35.081Z,29.87
2018-04-20T14:53:03.511Z,29.93
2018-04-20T14:55:32.068Z,29.97
2018-04-20T14:58:01.413Z,29.90
2018-04-20T15:00:29.896Z,30.12
2018-04-20T15:02:58.326Z,29.29
2018-04-20T15:05:26.817Z,29.38
2018-04-20T15:07:55.215Z,29.58
2018-04-20T15:10:23.792Z,29.81
2018-04-20T15:12:53.149Z,30.08
2018-04-20T15:15:21.508Z,30.04
2018-04-20T15:17:49.908Z,30.09
2018-04-20T15:20:18.883Z,29.59
2018-04-20T15:22:47.269Z,29.51
2018-04-20T15:25:16.519Z,28.76
2018-04-20T15:27:44.932Z,27.96
2018-04-20T15:30:13.365Z,27.23
2018-04-20T15:32:41.755Z,26.79
2018-04-20T15:35:10.140Z,26.32
2018-04-20T15:37:38.505Z,26.06
2018-04-20T15:40:06.861Z,25.73
2018-04-20T15:42:35.956Z,25.56
2018-04-20T15:45:04.391Z,25.20
2018-04-20T15:47:34.747Z,25.05
2018-04-20T15:50:03.841Z,24.86
2018-04-20T15:52:32.277Z,24.86
2018-04-20T15:55:00.742Z,24.78
2018-04-20T15:57:29.283Z,24.80
2018-04-20T15:59:57.734Z,24.67
2018-04-20T16:02:26.104Z,24.53
2018-04-20T16:04:54.598Z,24.48
2018-04-20T16:07:23.098Z,24.36
2018-04-20T16:09:51.490Z,24.25
2018-04-20T16:12:19.910Z,24.09
2018-04-20T16:14:48.987Z,23.96
2018-04-20T16:17:17.362Z,23.93
2018-04-20T16:19:45.764Z,23.82
2018-04-20T16:22:14.242Z,23.81
2018-04-20T16:24:42.721Z,23.83
2018-04-20T16:27:11.818Z,23.78
2018-04-20T16:29:40.196Z,23.72
2018-04-20T16:32:08.615Z,23.59
2018-04-20T16:34:37.309Z,23.48
2018-04-20T16:37:05.908Z,23.42
2018-04-20T16:39:34.287Z,23.28
2018-04-20T16:42:03.056Z,23.17
2018-04-20T16:44:31.646Z,23.04
2018-04-20T16:47:00.153Z,23.01
2018-04-20T16:49:29.073Z,23.00
2018-04-20T16:51:57.794Z,22.97
2018-04-20T16:54:26.706Z,22.89
2018-04-20T16:56:55.726Z,22.80
2018-04-20T16:59:25.104Z,22.79
2018-04-20T17:01:54.021Z,22.82
2018-04-20T17:04:23.596Z,22.65
2018-04-20T17:06:52.080Z,22.58
2018-04-20T17:09:20.545Z,22.42
2018-04-20T17:11:49.899Z,22.34
2018-04-20T17:14:18.287Z,22.33
2018-04-20T17:16:46.738Z,22.34
2018-04-20T17:19:15.293Z,22.31
2018-04-20T17:21:43.680Z,22.36
2018-04-20T17:24:12.376Z,22.26
2018-04-20T17:26:42.399Z,22.22
2018-04-20T17:29:10.975Z,22.07
2018-04-20T17:31:39.443Z,21.80
2018-04-20T17:34:08.836Z,21.60
2018-04-20T17:36:38.222Z,21.44
2018-04-20T17:39:06.728Z,21.35
2018-04-20T17:41:35.704Z,21.27
2018-04-20T17:44:04.698Z,21.15
2018-04-20T17:46:33.578Z,20.87
2018-04-20T17:49:02.598Z,20.66
2018-04-20T17:51:31.160Z,20.42
2018-04-20T17:53:59.850Z,20.30
2018-04-20T17:56:28.330Z,20.11
2018-04-20T17:58:56.759Z,19.85
2018-04-20T18:01:25.325Z,19.64
2018-04-20T18:03:54.691Z,19.49
2018-04-20T18:06:23.373Z,19.42
2018-04-20T18:08:51.791Z,19.26
2018-04-20T18:11:20.265Z,19.17
2018-04-20T18:13:48.632Z,19.10
2018-04-20T18:16:17.024Z,19.04
2018-04-20T18:18:45.443Z,19.02
2018-04-20T18:21:14.480Z,18.94
2018-04-20T18:23:42.913Z,18.82
2018-04-20T18:26:11.355Z,18.72
2018-04-20T18:28:39.967Z,18.57
2018-04-20T18:31:08.625Z,18.51
2018-04-20T18:33:37.124Z,18.43
2018-04-20T18:36:05.604Z,18.37
2018-04-20T18:38:33.988Z,18.29
2018-04-20T18:41:02.487Z,18.21
2018-04-20T18:43:31.017Z,18.15
2018-04-20T18:45:59.617Z,18.02
2018-04-20T18:48:28.794Z,17.98
2018-04-20T18:50:57.230Z,17.88
2018-04-20T18:53:25.691Z,17.81
2018-04-20T18:55:54.624Z,17.69
2018-04-20T18:58:23.090Z,17.62
2018-04-20T19:00:52.073Z,17.58
2018-04-20T19:03:20.929Z,17.52
2018-04-20T19:05:49.409Z,17.40
2018-04-20T19:08:17.795Z,17.36
2018-04-20T19:10:46.554Z,17.31
2018-04-20T19:13:16.891Z,17.26
2018-04-20T19:15:45.267Z,17.20
2018-04-20T19:18:14.893Z,17.12
2018-04-20T19:20:43.312Z,17.10
2018-04-20T19:23:11.781Z,17.05
2018-04-20T19:25:40.214Z,16.97
2018-04-20T19:28:08.639Z,16.92
2018-04-20T19:30:37.030Z,16.86
2018-04-20T19:33:05.557Z,16.77
2018-04-20T19:35:34.149Z,16.70
2018-04-20T19:38:02.653Z,16.61
2018-04-20T19:40:31.313Z,16.53
2018-04-20T19:42:59.808Z,16.46
2018-04-20T19:45:28.277Z,16.41
2018-04-20T19:47:57.164Z,16.33
2018-04-20T19:50:25.701Z,16.27
2018-04-20T19:52:54.348Z,16.20
2018-04-20T19:55:22.925Z,16.08
2018-04-20T19:57:51.306Z,15.95
2018-04-20T20:00:19.714Z,15.90
2018-04-20T20:02:48.263Z,15.87
2018-04-20T20:05:16.647Z,15.77
2018-04-20T20:07:45.961Z,15.70
2018-04-20T20:10:15.486Z,15.64
2018-04-20T20:12:43.874Z,15.61
2018-04-20T20:15:12.343Z,15.57
2018-04-20T20:17:40.724Z,15.57
2018-04-20T20:20:09.177Z,15.52
2018-04-20T20:22:37.621Z,15.46
2018-04-20T20:25:06.616Z,15.45
2018-04-20T20:27:35.024Z,15.43
2018-04-20T20:30:03.557Z,15.36
2018-04-20T20:32:32.354Z,15.31
2018-04-20T20:35:01.671Z,15.26
2018-04-20T20:37:31.000Z,15.23
2018-04-20T20:39:59.412Z,15.17
2018-04-20T20:42:27.890Z,15.14
2018-04-20T20:44:56.397Z,15.12
2018-04-20T20:47:25.701Z,15.06
2018-04-20T20:49:54.783Z,15.02
2018-04-20T20:52:23.489Z,14.97
2018-04-20T20:54:51.993Z,14.97
2018-04-20T20:57:20.351Z,14.95
2018-04-20T20:59:48.840Z,14.92
2018-04-20T21:02:17.256Z,14.92
2018-04-20T21:04:45.632Z,14.88
2018-04-20T21:07:14.164Z,14.82
2018-04-20T21:09:42.749Z,14.84
2018-04-20T21:12:11.202Z,14.82
2018-04-20T21:14:39.653Z,14.79
2018-04-20T21:17:08.967Z,14.78
2018-04-20T21:19:37.423Z,14.74
2018-04-20T21:22:06.217Z,14.70
2018-04-20T21:24:34.985Z,14.68
2018-04-20T21:27:03.368Z,14.67
2018-04-20T21:29:31.974Z,14.61
2018-04-20T21:32:01.175Z,14.60
2018-04-20T21:34:29.902Z,14.53
2018-04-20T21:36:58.554Z,14.51
2018-04-20T21:39:27.361Z,14.43
2018-04-20T21:41:56.396Z,14.38
2018-04-20T21:44:25.071Z,14.36
2018-04-20T21:46:53.771Z,14.33
2018-04-20T21:49:22.236Z,14.31
2018-04-20T21:51:51.620Z,14.34
2018-04-20T21:54:20.047Z,14.34
2018-04-20T21:56:48.500Z,14.30
2018-04-20T21:59:16.906Z,14.30
2018-04-20T22:01:46.199Z,14.30
2018-04-20T22:04:14.775Z,14.26
2018-04-20T22:06:43.196Z,14.21
2018-04-20T22:09:11.813Z,14.15
2018-04-20T22:11:40.355Z,14.12
2018-04-20T22:14:08.760Z,14.07
2018-04-20T22:16:37.574Z,14.03
2018-04-20T22:19:06.008Z,13.98
2018-04-20T22:21:34.436Z,13.92
2018-04-20T22:24:04.329Z,13.89
2018-04-20T22:26:33.117Z,13.81
2018-04-20T22:29:01.670Z,13.81
2018-04-20T22:31:30.203Z,13.81
2018-04-20T22:33:58.743Z,13.76
2018-04-20T22:36:27.429Z,13.74
2018-04-20T22:38:56.018Z,13.70
2018-04-20T22:41:24.574Z,13.69
2018-04-20T22:43:53.168Z,13.65
2018-04-20T22:46:21.979Z,13.65
2018-04-20T22:48:50.553Z,13.60
2018-04-20T22:51:18.984Z,13.61
2018-04-20T22:53:47.882Z,13.57
2018-04-20T22:56:16.302Z,13.56
2018-04-20T22:58:44.690Z,13.56
2018-04-20T23:01:13.510Z,13.48
2018-04-20T23:03:41.936Z,13.38
2018-04-20T23:06:10.477Z,13.40
2018-04-20T23:08:39.061Z,13.42
2018-04-20T23:11:07.531Z,13.41
2018-04-20T23:13:35.994Z,13.37
2018-04-20T23:16:04.711Z,13.35
2018-04-20T23:18:33.136Z,13.28
2018-04-20T23:21:01.745Z,13.26
2018-04-20T23:23:30.995Z,13.20
2018-04-20T23:25:59.936Z,13.12
2018-04-20T23:28:28.382Z,13.02
2018-04-20T23:30:57.175Z,12.94
2018-04-20T23:33:25.740Z,12.97
2018-04-20T23:35:54.524Z,12.91
2018-04-20T23:38:23.112Z,12.88
2018-04-20T23:40:51.526Z,12.89
2018-04-20T23:43:19.907Z,12.87
2018-04-20T23:45:48.338Z,12.80
2018-04-20T23:48:16.736Z,12.76
2018-04-20T23:50:45.168Z,12.69
2018-04-20T23:53:13.953Z,12.62
2018-04-20T23:55:42.367Z,12.60
2018-04-20T23:58:10.909Z,12.61
